createdAt,value
2023-03-31T00:01:07.357Z,16.9
2023-03-31T00:13:07.314Z,16.9
2023-03-31T00:25:07.271Z,16.9
2023-03-31T00:37:07.235Z,16.9
2023-03-31T00:49:07.381Z,16.8
2023-03-31T01:01:07.403Z,16.8
2023-03-31T01:13:07.293Z,16.9
2023-03-31T01:25:07.498Z,16.8
2023-03-31T01:37:07.418Z,16.8
2023-03-31T01:49:07.405Z,16.8
2023-03-31T02:01:07.360Z,16.8
2023-03-31T02:13:07.520Z,16.8
2023-03-31T02:25:07.460Z,16.8
2023-03-31T02:37:07.458Z,16.8
2023-03-31T02:49:07.377Z,16.8
2023-03-31T03:01:07.474Z,16.8
2023-03-31T03:13:07.530Z,16.8
2023-03-31T03:25:07.526Z,16.7
2023-03-31T03:37:07.442Z,16.7
2023-03-31T03:49:07.627Z,16.7
2023-03-31T04:01:07.581Z,16.7
2023-03-31T04:13:07.528Z,16.7
2023-03-31T04:25:07.479Z,16.7
2023-03-31T04:37:07.658Z,16.7
2023-03-31T04:49:07.578Z,16.7
2023-03-31T05:01:07.636Z,16.7
2023-03-31T05:13:07.493Z,16.6
2023-03-31T05:25:07.686Z,16.6
2023-03-31T05:37:07.619Z,16.6
2023-03-31T05:49:07.601Z,16.6
2023-03-31T06:01:08.104Z,16.6
2023-03-31T06:13:07.718Z,16.6
2023-03-31T06:25:07.658Z,16.6
2023-03-31T06:37:07.643Z,16.6
2023-03-31T06:49:07.769Z,16.5
2023-03-31T07:01:08.290Z,16.6
2023-03-31T07:13:07.686Z,16.5
2023-03-31T07:25:07.669Z,16.6
2023-03-31T07:37:07.804Z,16.6
2023-03-31T07:49:07.791Z,16.6
2023-03-31T08:01:07.889Z,16.6
2023-03-31T08:13:07.685Z,16.6
2023-03-31T08:25:07.827Z,16.7
2023-03-31T08:37:07.802Z,16.7
2023-03-31T08:49:07.737Z,16.7
2023-03-31T09:01:08.198Z,16.7
2023-03-31T09:13:07.847Z,16.8
2023-03-31T09:25:07.872Z,16.9
2023-03-31T09:37:07.865Z,16.9
2023-03-31T09:49:08.034Z,16.9
2023-03-31T10:01:08.079Z,16.8
2023-03-31T10:13:07.904Z,16.8
2023-03-31T10:25:07.834Z,16.9
2023-03-31T10:37:08.065Z,16.8
2023-03-31T10:49:07.939Z,16.8
2023-03-31T11:01:08.067Z,16.9
2023-03-31T11:13:07.871Z,16.9
2023-03-31T11:25:08.036Z,16.9
2023-03-31T11:37:07.960Z,16.9
2023-03-31T11:49:07.956Z,16.9
2023-03-31T12:01:08.120Z,17
2023-03-31T12:13:08.766Z,17.1
2023-03-31T12:25:08.615Z,17.1
2023-03-31T12:37:09.239Z,17.1
2023-03-31T12:49:08.065Z,17.2
2023-03-31T13:01:09.408Z,17.2
2023-03-31T13:13:08.188Z,17.3
2023-03-31T13:25:08.138Z,17.3
2023-03-31T13:37:08.103Z,17.2
2023-03-31T13:49:08.288Z,17.3
2023-03-31T14:01:08.168Z,17.4
2023-03-31T14:13:08.196Z,17.2
2023-03-31T14:25:08.056Z,17.1
2023-03-31T14:37:08.762Z,17.2
2023-03-31T14:49:08.174Z,17.2
2023-03-31T15:01:08.175Z,17.2
2023-03-31T15:13:08.296Z,17.2
2023-03-31T15:25:08.272Z,17.2
2023-03-31T15:37:08.244Z,17.3
2023-03-31T15:49:08.172Z,17.2
2023-03-31T16:01:08.335Z,17.2
2023-03-31T16:13:08.279Z,17.4
2023-03-31T16:25:08.218Z,17.5
2023-03-31T16:37:08.282Z,17.3
2023-03-31T16:49:08.344Z,17.2
2023-03-31T17:01:08.380Z,17.2
2023-03-31T17:13:08.270Z,17.1
2023-03-31T17:25:08.397Z,17.1
2023-03-31T17:37:08.440Z,17.1
2023-03-31T17:49:08.357Z,17.1
2023-03-31T18:01:08.361Z,17.1
2023-03-31T18:13:08.464Z,17.1
2023-03-31T18:25:08.417Z,17.1
2023-03-31T18:37:08.496Z,17.1
2023-03-31T18:49:08.304Z,17
2023-03-31T19:01:08.626Z,17.1
2023-03-31T19:13:08.512Z,17.1
2023-03-31T19:25:09.255Z,17.1
2023-03-31T19:37:08.752Z,17.1
2023-03-31T19:49:09.149Z,17
2023-03-31T20:01:08.883Z,17
2023-03-31T20:13:08.853Z,17
2023-03-31T20:25:08.787Z,16.9
2023-03-31T20:37:08.685Z,16.9
2023-03-31T20:49:08.733Z,17
2023-03-31T21:01:08.638Z,16.9
2023-03-31T21:13:09.679Z,17
2023-03-31T21:25:08.910Z,17.1
2023-03-31T21:37:08.704Z,17
2023-03-31T21:49:08.998Z,17
2023-03-31T22:01:09.376Z,17
2023-03-31T22:13:09.385Z,17.1
2023-03-31T22:25:08.869Z,17
2023-03-31T22:37:08.958Z,17
2023-03-31T22:49:09.274Z,17
2023-03-31T23:01:08.961Z,17
2023-03-31T23:13:08.873Z,17
2023-03-31T23:25:09.037Z,17.1
2023-03-31T23:37:09.018Z,17.1
2023-03-31T23:49:08.913Z,17.1
